Station Historical Data
Daily Summary for January 25, 2018 Units:  Both    English   Metric
« Previous Day
Next Day »
Daily Weekly Monthly Yearly Custom
  High: Low: Average:
Temperature: TemperatureF °F /  -17.8 °C 13.5 °F /  -10.3 °C 21.5 °F /  -5.8 °C
Dew Point: DewpointF °F /  -17.8 °C 9.0 °F /  -12.8 °C 13.7 °F /  -10.2 °C
Humidity: Humidity% 53% 72%
Wind Speed: WindSpeedMPHmph /  0km/h - 2.3mph /  3.7km/h
Wind Gust: WindSpeedGustMPHmph /  0km/h - -
Wind- - WSW
Pressure: PressureIn in /  0 hPa 30.33 in /  1027 hPa -
Precipitation: 0.00 in /  0 mm    
Historical Graphs
 
 
Tabular Data for January 25, 2018
Time Temperature Dew Point Pressure Wind Wind Speed Wind Gust Humidity Rainfall Rate (Hourly)
TemperatureF °F /  -17.8 °C DewpointF °F /  -17.8 °C PressureInin /  0hPa Calm     Humidity% HourlyPrecipInin /  0mm
00:00 20.4 °F /  -6.4 °C 13.7 °F /  -10.2 °C 30.33in /  1027hPa NNW 2.0mph /  3.2km/h 7.0mph /  11.3km/h 75% 0.00in /  0mm
00:05 20.3 °F /  -6.5 °C 13.3 °F /  -10.4 °C 30.33in /  1027hPa NNW 3.0mph /  4.8km/h 7.0mph /  11.3km/h 74% 0.00in /  0mm
00:10 20.2 °F /  -6.6 °C 13.2 °F /  -10.4 °C 30.33in /  1027hPa NNW 3.0mph /  4.8km/h 7.0mph /  11.3km/h 74% 0.00in /  0mm
00:15 20.2 °F /  -6.6 °C 13.2 °F /  -10.4 °C 30.33in /  1027hPa NNW 2.0mph /  3.2km/h 6.0mph /  9.7km/h 74% 0.00in /  0mm
00:20 20.2 °F /  -6.6 °C 13.2 °F /  -10.4 °C 30.33in /  1027hPa NNW 3.0mph /  4.8km/h 6.0mph /  9.7km/h 74% 0.00in /  0mm
00:25 20.2 °F /  -6.6 °C 13.2 °F /  -10.4 °C 30.33in /  1027hPa NNW 6.0mph /  9.7km/h 6.0mph /  9.7km/h 74% 0.00in /  0mm
00:30 20.1 °F /  -6.6 °C 13.1 °F /  -10.5 °C 30.34in /  1027.3hPa Calm   6.0mph /  9.7km/h 74% 0.00in /  0mm
00:35 20.0 °F /  -6.7 °C 13.0 °F /  -10.6 °C 30.34in /  1027.3hPa NNW 1.0mph /  1.6km/h 4.0mph /  6.4km/h 74% 0.00in /  0mm
00:40 19.9 °F /  -6.7 °C 12.9 °F /  -10.6 °C 30.34in /  1027.3hPa NNW 1.0mph /  1.6km/h 4.0mph /  6.4km/h 74% 0.00in /  0mm
00:45 19.8 °F /  -6.8 °C 12.8 °F /  -10.7 °C 30.34in /  1027.3hPa NNW 2.0mph /  3.2km/h 5.0mph /  8km/h 74% 0.00in /  0mm
00:50 19.7 °F /  -6.8 °C 12.8 °F /  -10.7 °C 30.34in /  1027.3hPa NNW 2.0mph /  3.2km/h 5.0mph /  8km/h 74% 0.00in /  0mm
00:55 19.5 °F /  -6.9 °C 12.6 °F /  -10.8 °C 30.34in /  1027.3hPa NNW 2.0mph /  3.2km/h 5.0mph /  8km/h 74% 0.00in /  0mm
01:00 19.3 °F /  -7.1 °C 12.4 °F /  -10.9 °C 30.34in /  1027.3hPa NNW 2.0mph /  3.2km/h 3.0mph /  4.8km/h 74% 0.00in /  0mm
01:05 19.2 °F /  -7.1 °C 12.3 °F /  -10.9 °C 30.35in /  1027.7hPa NNW 1.0mph /  1.6km/h 4.0mph /  6.4km/h 74% 0.00in /  0mm
01:10 19.1 °F /  -7.2 °C 12.2 °F /  -11 °C 30.35in /  1027.7hPa NNW 2.0mph /  3.2km/h 5.0mph /  8km/h 74% 0.00in /  0mm
01:15 19.0 °F /  -7.2 °C 12.1 °F /  -11.1 °C 30.35in /  1027.7hPa NNW 2.0mph /  3.2km/h 5.0mph /  8km/h 74% 0.00in /  0mm
01:20 18.9 °F /  -7.3 °C 12.0 °F /  -11.1 °C 30.35in /  1027.7hPa NNW 2.0mph /  3.2km/h 5.0mph /  8km/h 74% 0.00in /  0mm
01:25 18.9 °F /  -7.3 °C 12.0 °F /  -11.1 °C 30.35in /  1027.7hPa NNW 2.0mph /  3.2km/h 5.0mph /  8km/h 74% 0.00in /  0mm
01:30 18.9 °F /  -7.3 °C 12.0 °F /  -11.1 °C 30.35in /  1027.7hPa North 1.0mph /  1.6km/h 5.0mph /  8km/h 74% 0.00in /  0mm
01:35 18.6 °F /  -7.4 °C 12.0 °F /  -11.1 °C 30.36in /  1028hPa North 2.0mph /  3.2km/h 3.0mph /  4.8km/h 75% 0.00in /  0mm
01:40 18.5 °F /  -7.5 °C 11.9 °F /  -11.2 °C 30.36in /  1028hPa NNW 2.0mph /  3.2km/h 5.0mph /  8km/h 75% 0.00in /  0mm
01:45 18.4 °F /  -7.6 °C 11.8 °F /  -11.2 °C 30.36in /  1028hPa Calm   2.0mph /  3.2km/h 75% 0.00in /  0mm
01:50 18.3 °F /  -7.6 °C 11.7 °F /  -11.3 °C 30.36in /  1028hPa NNW 1.0mph /  1.6km/h 5.0mph /  8km/h 75% 0.00in /  0mm
01:55 18.2 °F /  -7.7 °C 11.9 °F /  -11.2 °C 30.37in /  1028.3hPa NNW 2.0mph /  3.2km/h 5.0mph /  8km/h 76% 0.00in /  0mm
02:00 18.2 °F /  -7.7 °C 11.9 °F /  -11.2 °C 30.37in /  1028.3hPa NNW 3.0mph /  4.8km/h 6.0mph /  9.7km/h 76% 0.00in /  0mm
02:05 18.1 °F /  -7.7 °C 11.8 °F /  -11.2 °C 30.37in /  1028.3hPa Calm   5.0mph /  8km/h 76% 0.00in /  0mm
02:10 18.0 °F /  -7.8 °C 11.7 °F /  -11.3 °C 30.38in /  1028.7hPa NNW 3.0mph /  4.8km/h 4.0mph /  6.4km/h 76% 0.00in /  0mm
02:15 17.8 °F /  -7.9 °C 11.5 °F /  -11.4 °C 30.38in /  1028.7hPa NNW 2.0mph /  3.2km/h 3.0mph /  4.8km/h 76% 0.00in /  0mm
02:20 17.8 °F /  -7.9 °C 11.5 °F /  -11.4 °C 30.38in /  1028.7hPa Calm   4.0mph /  6.4km/h 76% 0.00in /  0mm
02:25 17.6 °F /  -8 °C 11.3 °F /  -11.5 °C 30.38in /  1028.7hPa NNW 1.0mph /  1.6km/h 4.0mph /  6.4km/h 76% 0.00in /  0mm
02:30 17.4 °F /  -8.1 °C 11.4 °F /  -11.4 °C 30.39in /  1029hPa NNW 1.0mph /  1.6km/h 3.0mph /  4.8km/h 77% 0.00in /  0mm
02:35 17.3 °F /  -8.2 °C 11.3 °F /  -11.5 °C 30.39in /  1029hPa NNW 1.0mph /  1.6km/h 3.0mph /  4.8km/h 77% 0.00in /  0mm
02:40 17.3 °F /  -8.2 °C 11.3 °F /  -11.5 °C 30.39in /  1029hPa Calm   4.0mph /  6.4km/h 77% 0.00in /  0mm
02:45 17.2 °F /  -8.2 °C 11.2 °F /  -11.6 °C 30.39in /  1029hPa Calm     77% 0.00in /  0mm
02:50 17.1 °F /  -8.3 °C 11.1 °F /  -11.6 °C 30.39in /  1029hPa Calm     77% 0.00in /  0mm
02:55 17.0 °F /  -8.3 °C 11.0 °F /  -11.7 °C 30.39in /  1029hPa Calm     77% 0.00in /  0mm
03:00 16.9 °F /  -8.4 °C 11.2 °F /  -11.6 °C 30.39in /  1029hPa Calm     78% 0.00in /  0mm
03:05 16.8 °F /  -8.4 °C 11.1 °F /  -11.6 °C 30.39in /  1029hPa Calm     78% 0.00in /  0mm
03:10 16.7 °F /  -8.5 °C 11.0 °F /  -11.7 °C 30.39in /  1029hPa Calm     78% 0.00in /  0mm
03:15 16.6 °F /  -8.6 °C 10.9 °F /  -11.7 °C 30.39in /  1029hPa Calm     78% 0.00in /  0mm
03:20 16.4 °F /  -8.7 °C 10.7 °F /  -11.8 °C 30.40in /  1029.3hPa Calm     78% 0.00in /  0mm
03:25 16.3 °F /  -8.7 °C 10.6 °F /  -11.9 °C 30.40in /  1029.3hPa Calm     78% 0.00in /  0mm
03:30 16.2 °F /  -8.8 °C 10.8 °F /  -11.8 °C 30.40in /  1029.3hPa Calm     79% 0.00in /  0mm
03:35 16.0 °F /  -8.9 °C 10.6 °F /  -11.9 °C 30.40in /  1029.3hPa Calm     79% 0.00in /  0mm
03:40 16.0 °F /  -8.9 °C 10.6 °F /  -11.9 °C 30.40in /  1029.3hPa Calm     79% 0.00in /  0mm
03:45 15.9 °F /  -8.9 °C 10.8 °F /  -11.8 °C 30.41in /  1029.7hPa Calm     80% 0.00in /  0mm
03:50 16.0 °F /  -8.9 °C 10.9 °F /  -11.7 °C 30.41in /  1029.7hPa Calm     80% 0.00in /  0mm
03:55 16.1 °F /  -8.8 °C 11.0 °F /  -11.7 °C 30.41in /  1029.7hPa NNW 1.0mph /  1.6km/h 5.0mph /  8km/h 80% 0.00in /  0mm
04:00 16.4 °F /  -8.7 °C 11.3 °F /  -11.5 °C 30.41in /  1029.7hPa NW 2.0mph /  3.2km/h 7.0mph /  11.3km/h 80% 0.00in /  0mm
04:05 16.5 °F /  -8.6 °C 11.4 °F /  -11.4 °C 30.41in /  1029.7hPa NW 2.0mph /  3.2km/h 7.0mph /  11.3km/h 80% 0.00in /  0mm
04:10 16.6 °F /  -8.6 °C 11.2 °F /  -11.6 °C 30.41in /  1029.7hPa NNW 2.0mph /  3.2km/h 6.0mph /  9.7km/h 79% 0.00in /  0mm
04:15 16.6 °F /  -8.6 °C 11.2 °F /  -11.6 °C 30.41in /  1029.7hPa Calm   4.0mph /  6.4km/h 79% 0.00in /  0mm
04:20 16.6 °F /  -8.6 °C 11.2 °F /  -11.6 °C 30.42in /  1030hPa NW 3.0mph /  4.8km/h 5.0mph /  8km/h 79% 0.00in /  0mm
04:25 16.4 °F /  -8.7 °C 10.7 °F /  -11.8 °C 30.42in /  1030hPa NW 3.0mph /  4.8km/h 4.0mph /  6.4km/h 78% 0.00in /  0mm
04:30 16.4 °F /  -8.7 °C 10.7 °F /  -11.8 °C 30.42in /  1030hPa NW 3.0mph /  4.8km/h 6.0mph /  9.7km/h 78% 0.00in /  0mm
04:35 16.4 °F /  -8.7 °C 10.7 °F /  -11.8 °C 30.42in /  1030hPa NW 2.0mph /  3.2km/h 4.0mph /  6.4km/h 78% 0.00in /  0mm
04:40 16.2 °F /  -8.8 °C 10.5 °F /  -11.9 °C 30.43in /  1030.4hPa NW 1.0mph /  1.6km/h 4.0mph /  6.4km/h 78% 0.00in /  0mm
04:45 16.2 °F /  -8.8 °C 10.5 °F /  -11.9 °C 30.43in /  1030.4hPa NW 1.0mph /  1.6km/h 4.0mph /  6.4km/h 78% 0.00in /  0mm
04:50 16.0 °F /  -8.9 °C 10.3 °F /  -12.1 °C 30.43in /  1030.4hPa NW 1.0mph /  1.6km/h 4.0mph /  6.4km/h 78% 0.00in /  0mm
04:55 15.9 °F /  -8.9 °C 10.3 °F /  -12.1 °C 30.44in /  1030.7hPa NW 1.0mph /  1.6km/h 4.0mph /  6.4km/h 78% 0.00in /  0mm
05:00 15.8 °F /  -9 °C 10.4 °F /  -12 °C 30.44in /  1030.7hPa NW 1.0mph /  1.6km/h 3.0mph /  4.8km/h 79% 0.00in /  0mm
05:05 15.8 °F /  -9 °C 10.2 °F /  -12.1 °C 30.44in /  1030.7hPa NW 1.0mph /  1.6km/h 2.0mph /  3.2km/h 78% 0.00in /  0mm
05:10 15.7 °F /  -9.1 °C 10.3 °F /  -12.1 °C 30.44in /  1030.7hPa NW 2.0mph /  3.2km/h 2.0mph /  3.2km/h 79% 0.00in /  0mm
05:15 15.7 °F /  -9.1 °C 10.3 °F /  -12.1 °C 30.44in /  1030.7hPa NW 1.0mph /  1.6km/h 3.0mph /  4.8km/h 79% 0.00in /  0mm
05:20 15.8 °F /  -9 °C 10.4 °F /  -12 °C 30.44in /  1030.7hPa NW 1.0mph /  1.6km/h 3.0mph /  4.8km/h 79% 0.00in /  0mm
05:25 15.8 °F /  -9 °C 10.4 °F /  -12 °C 30.45in /  1031hPa Calm   3.0mph /  4.8km/h 79% 0.00in /  0mm
05:30 15.8 °F /  -9 °C 10.4 °F /  -12 °C 30.45in /  1031hPa Calm   4.0mph /  6.4km/h 79% 0.00in /  0mm
05:35 15.8 °F /  -9 °C 10.4 °F /  -12 °C 30.45in /  1031hPa Calm     79% 0.00in /  0mm
05:40 15.8 °F /  -9 °C 10.4 °F /  -12 °C 30.44in /  1030.7hPa Calm     79% 0.00in /  0mm
05:45 15.8 °F /  -9 °C 10.4 °F /  -12 °C 30.45in /  1031hPa Calm     79% 0.00in /  0mm
05:50 15.7 °F /  -9.1 °C 10.3 °F /  -12.1 °C 30.45in /  1031hPa Calm     79% 0.00in /  0mm
05:55 15.7 °F /  -9.1 °C 10.3 °F /  -12.1 °C 30.45in /  1031hPa Calm     79% 0.00in /  0mm
06:00 15.6 °F /  -9.1 °C 10.2 °F /  -12.1 °C 30.45in /  1031hPa Calm     79% 0.00in /  0mm
06:05 15.5 °F /  -9.2 °C 10.1 °F /  -12.2 °C 30.46in /  1031.4hPa Calm     79% 0.00in /  0mm
06:10 15.3 °F /  -9.3 °C 10.0 °F /  -12.2 °C 30.46in /  1031.4hPa Calm     79% 0.00in /  0mm
06:15 15.1 °F /  -9.4 °C 9.8 °F /  -12.3 °C 30.46in /  1031.4hPa Calm     79% 0.00in /  0mm
06:20 14.9 °F /  -9.5 °C 9.6 °F /  -12.4 °C 30.46in /  1031.4hPa Calm     79% 0.00in /  0mm
06:25 14.8 °F /  -9.6 °C 9.7 °F /  -12.4 °C 30.47in /  1031.7hPa Calm     80% 0.00in /  0mm
06:30 14.7 °F /  -9.6 °C 9.6 °F /  -12.4 °C 30.46in /  1031.4hPa Calm     80% 0.00in /  0mm
06:35 14.5 °F /  -9.7 °C 9.5 °F /  -12.5 °C 30.47in /  1031.7hPa Calm     80% 0.00in /  0mm
06:40 14.4 °F /  -9.8 °C 9.4 °F /  -12.6 °C 30.47in /  1031.7hPa Calm     80% 0.00in /  0mm
06:45 14.4 °F /  -9.8 °C 9.6 °F /  -12.4 °C 30.48in /  1032.1hPa Calm     81% 0.00in /  0mm
06:50 14.3 °F /  -9.8 °C 9.5 °F /  -12.5 °C 30.48in /  1032.1hPa Calm     81% 0.00in /  0mm
06:55 14.4 °F /  -9.8 °C 9.6 °F /  -12.4 °C 30.48in /  1032.1hPa Calm     81% 0.00in /  0mm
07:00 14.3 °F /  -9.8 °C 9.5 °F /  -12.5 °C 30.49in /  1032.4hPa Calm     81% 0.00in /  0mm
07:05 14.2 °F /  -9.9 °C 9.4 °F /  -12.6 °C 30.49in /  1032.4hPa Calm     81% 0.00in /  0mm
07:10 14.0 °F /  -10 °C 9.2 °F /  -12.7 °C 30.49in /  1032.4hPa Calm     81% 0.00in /  0mm
07:15 13.9 °F /  -10.1 °C 9.4 °F /  -12.6 °C 30.49in /  1032.4hPa Calm     82% 0.00in /  0mm
07:20 13.7 °F /  -10.2 °C 9.2 °F /  -12.7 °C 30.49in /  1032.4hPa Calm     82% 0.00in /  0mm
07:25 13.7 °F /  -10.2 °C 9.2 °F /  -12.7 °C 30.49in /  1032.4hPa Calm     82% 0.00in /  0mm
07:30 13.6 °F /  -10.2 °C 9.1 °F /  -12.7 °C 30.49in /  1032.4hPa Calm     82% 0.00in /  0mm
07:35 13.5 °F /  -10.3 °C 9.0 °F /  -12.8 °C 30.49in /  1032.4hPa Calm     82% 0.00in /  0mm
07:40 13.7 °F /  -10.2 °C 9.5 °F /  -12.5 °C 30.50in /  1032.7hPa Calm     83% 0.00in /  0mm
07:45 13.5 °F /  -10.3 °C 9.3 °F /  -12.6 °C 30.50in /  1032.7hPa Calm     83% 0.00in /  0mm
07:50 13.5 °F /  -10.3 °C 9.3 °F /  -12.6 °C 30.50in /  1032.7hPa Calm     83% 0.00in /  0mm
07:55 13.7 °F /  -10.2 °C 9.8 °F /  -12.3 °C 30.50in /  1032.7hPa Calm     84% 0.00in /  0mm
08:00 13.7 °F /  -10.2 °C 9.5 °F /  -12.5 °C 30.50in /  1032.7hPa Calm     83% 0.00in /  0mm
08:05 13.9 °F /  -10.1 °C 10.0 °F /  -12.2 °C 30.50in /  1032.7hPa Calm     84% 0.00in /  0mm
08:10 14.1 °F /  -9.9 °C 10.2 °F /  -12.1 °C 30.50in /  1032.7hPa Calm     84% 0.00in /  0mm
08:15 14.4 °F /  -9.8 °C 10.4 °F /  -12 °C 30.50in /  1032.7hPa Calm     84% 0.00in /  0mm
08:20 14.8 °F /  -9.6 °C 10.8 °F /  -11.8 °C 30.51in /  1033.1hPa Calm     84% 0.00in /  0mm
08:25 15.4 °F /  -9.2 °C 11.4 °F /  -11.4 °C 30.51in /  1033.1hPa Calm     84% 0.00in /  0mm
08:30 16.2 °F /  -8.8 °C 12.2 °F /  -11 °C 30.51in /  1033.1hPa Calm     84% 0.00in /  0mm
08:35 16.8 °F /  -8.4 °C 12.3 °F /  -10.9 °C 30.51in /  1033.1hPa Calm     82% 0.00in /  0mm
08:40 17.3 °F /  -8.2 °C 12.2 °F /  -11 °C 30.52in /  1033.4hPa Calm     80% 0.00in /  0mm
08:45 17.4 °F /  -8.1 °C 12.0 °F /  -11.1 °C 30.52in /  1033.4hPa Calm     79% 0.00in /  0mm
08:50 17.9 °F /  -7.8 °C 12.2 °F /  -11 °C 30.52in /  1033.4hPa Calm   1.0mph /  1.6km/h 78% 0.00in /  0mm
08:55 18.0 °F /  -7.8 °C 12.0 °F /  -11.1 °C 30.52in /  1033.4hPa Calm   1.0mph /  1.6km/h 77% 0.00in /  0mm
09:00 18.2 °F /  -7.7 °C 12.2 °F /  -11 °C 30.52in /  1033.4hPa Calm   4.0mph /  6.4km/h 77% 0.00in /  0mm
09:05 18.2 °F /  -7.7 °C 11.9 °F /  -11.2 °C 30.52in /  1033.4hPa Calm   2.0mph /  3.2km/h 76% 0.00in /  0mm
09:10 18.4 °F /  -7.6 °C 12.1 °F /  -11.1 °C 30.52in /  1033.4hPa Calm     76% 0.00in /  0mm
09:15 18.5 °F /  -7.5 °C 11.9 °F /  -11.2 °C 30.52in /  1033.4hPa NW 1.0mph /  1.6km/h 4.0mph /  6.4km/h 75% 0.00in /  0mm
09:20 18.6 °F /  -7.4 °C 12.0 °F /  -11.1 °C 30.52in /  1033.4hPa WNW 2.0mph /  3.2km/h 4.0mph /  6.4km/h 75% 0.00in /  0mm
09:25 18.8 °F /  -7.3 °C 12.2 °F /  -11 °C 30.53in /  1033.7hPa Calm   3.0mph /  4.8km/h 75% 0.00in /  0mm
09:30 18.9 °F /  -7.3 °C 12.3 °F /  -10.9 °C 30.53in /  1033.7hPa Calm   3.0mph /  4.8km/h 75% 0.00in /  0mm
09:35 19.1 °F /  -7.2 °C 12.5 °F /  -10.8 °C 30.53in /  1033.7hPa WNW 3.0mph /  4.8km/h 3.0mph /  4.8km/h 75% 0.00in /  0mm
09:40 19.1 °F /  -7.2 °C 12.2 °F /  -11 °C 30.53in /  1033.7hPa WNW 1.0mph /  1.6km/h 4.0mph /  6.4km/h 74% 0.00in /  0mm
09:45 19.5 °F /  -6.9 °C 12.9 °F /  -10.6 °C 30.53in /  1033.7hPa West 3.0mph /  4.8km/h 6.0mph /  9.7km/h 75% 0.00in /  0mm
09:50 19.7 °F /  -6.8 °C 13.1 °F /  -10.5 °C 30.53in /  1033.7hPa West 3.0mph /  4.8km/h 6.0mph /  9.7km/h 75% 0.00in /  0mm
09:55 20.1 °F /  -6.6 °C 13.4 °F /  -10.3 °C 30.54in /  1034.1hPa WSW 3.0mph /  4.8km/h 5.0mph /  8km/h 75% 0.00in /  0mm
10:00 20.0 °F /  -6.7 °C 13.0 °F /  -10.6 °C 30.54in /  1034.1hPa SW 3.0mph /  4.8km/h 8.0mph /  12.9km/h 74% 0.00in /  0mm
10:05 19.9 °F /  -6.7 °C 12.6 °F /  -10.8 °C 30.54in /  1034.1hPa SW 3.0mph /  4.8km/h 8.0mph /  12.9km/h 73% 0.00in /  0mm
10:10 20.0 °F /  -6.7 °C 13.0 °F /  -10.6 °C 30.54in /  1034.1hPa Calm   6.0mph /  9.7km/h 74% 0.00in /  0mm
10:15 20.1 °F /  -6.6 °C 13.1 °F /  -10.5 °C 30.54in /  1034.1hPa SW 3.0mph /  4.8km/h 6.0mph /  9.7km/h 74% 0.00in /  0mm
10:20 20.0 °F /  -6.7 °C 12.4 °F /  -10.9 °C 30.54in /  1034.1hPa WSW 4.0mph /  6.4km/h 6.0mph /  9.7km/h 72% 0.00in /  0mm
10:25 20.0 °F /  -6.7 °C 12.4 °F /  -10.9 °C 30.54in /  1034.1hPa WSW 3.0mph /  4.8km/h 7.0mph /  11.3km/h 72% 0.00in /  0mm
10:30 20.2 °F /  -6.6 °C 12.6 °F /  -10.8 °C 30.54in /  1034.1hPa WSW 4.0mph /  6.4km/h 7.0mph /  11.3km/h 72% 0.00in /  0mm
10:35 20.4 °F /  -6.4 °C 12.8 °F /  -10.7 °C 30.54in /  1034.1hPa SW 4.0mph /  6.4km/h 7.0mph /  11.3km/h 72% 0.00in /  0mm
10:40 20.8 °F /  -6.2 °C 12.9 °F /  -10.6 °C 30.54in /  1034.1hPa SW 3.0mph /  4.8km/h 7.0mph /  11.3km/h 71% 0.00in /  0mm
10:45 21.1 °F /  -6.1 °C 13.2 °F /  -10.4 °C 30.54in /  1034.1hPa SW 4.0mph /  6.4km/h 8.0mph /  12.9km/h 71% 0.00in /  0mm
10:50 21.4 °F /  -5.9 °C 13.5 °F /  -10.3 °C 30.53in /  1033.7hPa SW 3.0mph /  4.8km/h 9.0mph /  14.5km/h 71% 0.00in /  0mm
10:55 22.0 °F /  -5.6 °C 13.7 °F /  -10.2 °C 30.54in /  1034.1hPa SW 5.0mph /  8km/h 8.0mph /  12.9km/h 70% 0.00in /  0mm
11:00 21.5 °F /  -5.8 °C 13.2 °F /  -10.4 °C 30.54in /  1034.1hPa SW 4.0mph /  6.4km/h 8.0mph /  12.9km/h 70% 0.00in /  0mm
11:05 21.4 °F /  -5.9 °C 12.8 °F /  -10.7 °C 30.54in /  1034.1hPa SW 4.0mph /  6.4km/h 8.0mph /  12.9km/h 69% 0.00in /  0mm
11:10 21.5 °F /  -5.8 °C 12.9 °F /  -10.6 °C 30.54in /  1034.1hPa SW 4.0mph /  6.4km/h 8.0mph /  12.9km/h 69% 0.00in /  0mm
11:15 21.9 °F /  -5.6 °C 13.3 °F /  -10.4 °C 30.54in /  1034.1hPa SW 4.0mph /  6.4km/h 8.0mph /  12.9km/h 69% 0.00in /  0mm
11:20 22.2 °F /  -5.4 °C 13.2 °F /  -10.4 °C 30.54in /  1034.1hPa WSW 3.0mph /  4.8km/h 6.0mph /  9.7km/h 68% 0.00in /  0mm
11:25 22.4 °F /  -5.3 °C 13.4 °F /  -10.3 °C 30.54in /  1034.1hPa WSW 5.0mph /  8km/h 7.0mph /  11.3km/h 68% 0.00in /  0mm
11:30 22.2 °F /  -5.4 °C 13.2 °F /  -10.4 °C 30.54in /  1034.1hPa SW 5.0mph /  8km/h 10.0mph /  16.1km/h 68% 0.00in /  0mm
11:35 22.4 °F /  -5.3 °C 13.4 °F /  -10.3 °C 30.53in /  1033.7hPa WSW 5.0mph /  8km/h 10.0mph /  16.1km/h 68% 0.00in /  0mm
11:40 22.4 °F /  -5.3 °C 13.1 °F /  -10.5 °C 30.53in /  1033.7hPa WSW 5.0mph /  8km/h 8.0mph /  12.9km/h 67% 0.00in /  0mm
11:45 22.9 °F /  -5.1 °C 13.9 °F /  -10.1 °C 30.53in /  1033.7hPa South 3.0mph /  4.8km/h 8.0mph /  12.9km/h 68% 0.00in /  0mm
11:50 23.3 °F /  -4.8 °C 14.0 °F /  -10 °C 30.53in /  1033.7hPa South 6.0mph /  9.7km/h 8.0mph /  12.9km/h 67% 0.00in /  0mm
11:55 23.2 °F /  -4.9 °C 14.2 °F /  -9.9 °C 30.53in /  1033.7hPa SW 1.0mph /  1.6km/h 7.0mph /  11.3km/h 68% 0.00in /  0mm
12:00 23.5 °F /  -4.7 °C 14.5 °F /  -9.7 °C 30.53in /  1033.7hPa SW 4.0mph /  6.4km/h 8.0mph /  12.9km/h 68% 0.00in /  0mm
12:05 23.4 °F /  -4.8 °C 14.0 °F /  -10 °C 30.52in /  1033.4hPa WSW 4.0mph /  6.4km/h 9.0mph /  14.5km/h 67% 0.00in /  0mm
12:10 23.4 °F /  -4.8 °C 13.7 °F /  -10.2 °C 30.52in /  1033.4hPa WSW 4.0mph /  6.4km/h 6.0mph /  9.7km/h 66% 0.00in /  0mm
12:15 23.4 °F /  -4.8 °C 14.4 °F /  -9.8 °C 30.52in /  1033.4hPa South 4.0mph /  6.4km/h 7.0mph /  11.3km/h 68% 0.00in /  0mm
12:20 23.6 °F /  -4.7 °C 14.2 °F /  -9.9 °C 30.52in /  1033.4hPa SSW 4.0mph /  6.4km/h 7.0mph /  11.3km/h 67% 0.00in /  0mm
12:25 24.2 °F /  -4.3 °C 14.5 °F /  -9.7 °C 30.52in /  1033.4hPa SW 7.0mph /  11.3km/h 7.0mph /  11.3km/h 66% 0.00in /  0mm
12:30 24.3 °F /  -4.3 °C 14.2 °F /  -9.9 °C 30.52in /  1033.4hPa SW 4.0mph /  6.4km/h 9.0mph /  14.5km/h 65% 0.00in /  0mm
12:35 24.0 °F /  -4.4 °C 13.9 °F /  -10.1 °C 30.52in /  1033.4hPa WSW 5.0mph /  8km/h 9.0mph /  14.5km/h 65% 0.00in /  0mm
12:40 24.3 °F /  -4.3 °C 14.2 °F /  -9.9 °C 30.52in /  1033.4hPa WSW 5.0mph /  8km/h 10.0mph /  16.1km/h 65% 0.00in /  0mm
12:45 24.0 °F /  -4.4 °C 13.9 °F /  -10.1 °C 30.53in /  1033.7hPa WSW 5.0mph /  8km/h 11.0mph /  17.7km/h 65% 0.00in /  0mm
12:50 24.2 °F /  -4.3 °C 13.8 °F /  -10.1 °C 30.53in /  1033.7hPa WSW 5.0mph /  8km/h 11.0mph /  17.7km/h 64% 0.00in /  0mm
12:55 23.9 °F /  -4.5 °C 13.1 °F /  -10.5 °C 30.52in /  1033.4hPa WNW 7.0mph /  11.3km/h 11.0mph /  17.7km/h 63% 0.00in /  0mm
13:00 24.1 °F /  -4.4 °C 13.3 °F /  -10.4 °C 30.52in /  1033.4hPa WSW 6.0mph /  9.7km/h 11.0mph /  17.7km/h 63% 0.00in /  0mm
13:05 24.6 °F /  -4.1 °C 13.4 °F /  -10.3 °C 30.52in /  1033.4hPa WSW 4.0mph /  6.4km/h 9.0mph /  14.5km/h 62% 0.00in /  0mm
13:10 24.9 °F /  -3.9 °C 13.7 °F /  -10.2 °C 30.52in /  1033.4hPa SW 6.0mph /  9.7km/h 8.0mph /  12.9km/h 62% 0.00in /  0mm
13:15 24.6 °F /  -4.1 °C 14.1 °F /  -9.9 °C 30.52in /  1033.4hPa WSW 3.0mph /  4.8km/h 9.0mph /  14.5km/h 64% 0.00in /  0mm
13:20 24.6 °F /  -4.1 °C 14.5 °F /  -9.7 °C 30.52in /  1033.4hPa West 3.0mph /  4.8km/h 11.0mph /  17.7km/h 65% 0.00in /  0mm
13:25 24.4 °F /  -4.2 °C 14.0 °F /  -10 °C 30.52in /  1033.4hPa South 4.0mph /  6.4km/h 11.0mph /  17.7km/h 64% 0.00in /  0mm
13:30 25.5 °F /  -3.6 °C 15.0 °F /  -9.4 °C 30.52in /  1033.4hPa SW 5.0mph /  8km/h 11.0mph /  17.7km/h 64% 0.00in /  0mm
13:35 24.9 °F /  -3.9 °C 14.4 °F /  -9.8 °C 30.52in /  1033.4hPa SW 5.0mph /  8km/h 12.0mph /  19.3km/h 64% 0.00in /  0mm
13:40 24.7 °F /  -4.1 °C 14.6 °F /  -9.7 °C 30.52in /  1033.4hPa SW 6.0mph /  9.7km/h 12.0mph /  19.3km/h 65% 0.00in /  0mm
13:45 24.5 °F /  -4.2 °C 14.8 °F /  -9.6 °C 30.52in /  1033.4hPa WSW 7.0mph /  11.3km/h 12.0mph /  19.3km/h 66% 0.00in /  0mm
13:50 24.8 °F /  -4 °C 14.7 °F /  -9.6 °C 30.52in /  1033.4hPa WSW 7.0mph /  11.3km/h 12.0mph /  19.3km/h 65% 0.00in /  0mm
13:55 24.0 °F /  -4.4 °C 14.3 °F /  -9.8 °C 30.52in /  1033.4hPa West 7.0mph /  11.3km/h 13.0mph /  20.9km/h 66% 0.00in /  0mm
14:00 23.4 °F /  -4.8 °C 14.4 °F /  -9.8 °C 30.52in /  1033.4hPa WSW 7.0mph /  11.3km/h 11.0mph /  17.7km/h 68% 0.00in /  0mm
14:05 24.4 °F /  -4.2 °C 15.7 °F /  -9.1 °C 30.52in /  1033.4hPa SW 7.0mph /  11.3km/h 11.0mph /  17.7km/h 69% 0.00in /  0mm
14:10 25.6 °F /  -3.6 °C 16.8 °F /  -8.4 °C 30.52in /  1033.4hPa WSW 4.0mph /  6.4km/h 10.0mph /  16.1km/h 69% 0.00in /  0mm
14:15 24.8 °F /  -4 °C 15.4 °F /  -9.2 °C 30.52in /  1033.4hPa SW 5.0mph /  8km/h 11.0mph /  17.7km/h 67% 0.00in /  0mm
14:20 24.8 °F /  -4 °C 15.4 °F /  -9.2 °C 30.52in /  1033.4hPa WSW 7.0mph /  11.3km/h 11.0mph /  17.7km/h 67% 0.00in /  0mm
14:25 24.6 °F /  -4.1 °C 14.5 °F /  -9.7 °C 30.52in /  1033.4hPa SW 9.0mph /  14.5km/h 12.0mph /  19.3km/h 65% 0.00in /  0mm
14:30 23.9 °F /  -4.5 °C 14.2 °F /  -9.9 °C 30.52in /  1033.4hPa WSW 6.0mph /  9.7km/h 10.0mph /  16.1km/h 66% 0.00in /  0mm
14:35 24.3 °F /  -4.3 °C 15.3 °F /  -9.3 °C 30.52in /  1033.4hPa SW 5.0mph /  8km/h 10.0mph /  16.1km/h 68% 0.00in /  0mm
14:40 25.2 °F /  -3.8 °C 15.4 °F /  -9.2 °C 30.51in /  1033.1hPa SW 5.0mph /  8km/h 11.0mph /  17.7km/h 66% 0.00in /  0mm
14:45 25.1 °F /  -3.8 °C 15.7 °F /  -9.1 °C 30.52in /  1033.4hPa SW 6.0mph /  9.7km/h 11.0mph /  17.7km/h 67% 0.00in /  0mm
14:50 24.5 °F /  -4.2 °C 14.8 °F /  -9.6 °C 30.52in /  1033.4hPa SW 6.0mph /  9.7km/h 11.0mph /  17.7km/h 66% 0.00in /  0mm
14:55 24.4 °F /  -4.2 °C 13.6 °F /  -10.2 °C 30.52in /  1033.4hPa WSW 7.0mph /  11.3km/h 12.0mph /  19.3km/h 63% 0.00in /  0mm
15:00 24.9 °F /  -3.9 °C 13.7 °F /  -10.2 °C 30.52in /  1033.4hPa WSW 6.0mph /  9.7km/h 12.0mph /  19.3km/h 62% 0.00in /  0mm
15:05 25.1 °F /  -3.8 °C 14.3 °F /  -9.8 °C 30.52in /  1033.4hPa WSW 6.0mph /  9.7km/h 13.0mph /  20.9km/h 63% 0.00in /  0mm
15:10 24.8 °F /  -4 °C 12.5 °F /  -10.8 °C 30.52in /  1033.4hPa WSW 6.0mph /  9.7km/h 13.0mph /  20.9km/h 59% 0.00in /  0mm
15:15 24.7 °F /  -4.1 °C 11.2 °F /  -11.6 °C 30.52in /  1033.4hPa West 2.0mph /  3.2km/h 10.0mph /  16.1km/h 56% 0.00in /  0mm
15:20 24.5 °F /  -4.2 °C 11.8 °F /  -11.2 °C 30.51in /  1033.1hPa West 6.0mph /  9.7km/h 7.0mph /  11.3km/h 58% 0.00in /  0mm
15:25 25.2 °F /  -3.8 °C 10.4 °F /  -12 °C 30.52in /  1033.4hPa West 3.0mph /  4.8km/h 7.0mph /  11.3km/h 53% 0.00in /  0mm
15:30 25.5 °F /  -3.6 °C 11.1 °F /  -11.6 °C 30.51in /  1033.1hPa SW 2.0mph /  3.2km/h 10.0mph /  16.1km/h 54% 0.00in /  0mm
15:35 25.2 °F /  -3.8 °C 11.7 °F /  -11.3 °C 30.51in /  1033.1hPa South 6.0mph /  9.7km/h 8.0mph /  12.9km/h 56% 0.00in /  0mm
15:40 25.0 °F /  -3.9 °C 12.7 °F /  -10.7 °C 30.51in /  1033.1hPa SW 6.0mph /  9.7km/h 7.0mph /  11.3km/h 59% 0.00in /  0mm
15:45 25.0 °F /  -3.9 °C 13.4 °F /  -10.3 °C 30.51in /  1033.1hPa SW 4.0mph /  6.4km/h 10.0mph /  16.1km/h 61% 0.00in /  0mm
15:50 24.8 °F /  -4 °C 13.6 °F /  -10.2 °C 30.51in /  1033.1hPa SW 4.0mph /  6.4km/h 10.0mph /  16.1km/h 62% 0.00in /  0mm
15:55 24.8 °F /  -4 °C 14.0 °F /  -10 °C 30.51in /  1033.1hPa SSW 5.0mph /  8km/h 10.0mph /  16.1km/h 63% 0.00in /  0mm
16:00 24.9 °F /  -3.9 °C 14.1 °F /  -9.9 °C 30.52in /  1033.4hPa SSW 4.0mph /  6.4km/h 9.0mph /  14.5km/h 63% 0.00in /  0mm
16:05 24.9 °F /  -3.9 °C 14.1 °F /  -9.9 °C 30.52in /  1033.4hPa SW 4.0mph /  6.4km/h 10.0mph /  16.1km/h 63% 0.00in /  0mm
16:10 24.9 °F /  -3.9 °C 14.4 °F /  -9.8 °C 30.52in /  1033.4hPa SW 5.0mph /  8km/h 10.0mph /  16.1km/h 64% 0.00in /  0mm
16:15 24.8 °F /  -4 °C 14.3 °F /  -9.8 °C 30.52in /  1033.4hPa SW 5.0mph /  8km/h 9.0mph /  14.5km/h 64% 0.00in /  0mm
16:20 24.7 °F /  -4.1 °C 14.6 °F /  -9.7 °C 30.52in /  1033.4hPa WSW 6.0mph /  9.7km/h 10.0mph /  16.1km/h 65% 0.00in /  0mm
16:25 24.9 °F /  -3.9 °C 15.1 °F /  -9.4 °C 30.52in /  1033.4hPa SW 4.0mph /  6.4km/h 6.0mph /  9.7km/h 66% 0.00in /  0mm
16:30 24.9 °F /  -3.9 °C 14.8 °F /  -9.6 °C 30.52in /  1033.4hPa SW 7.0mph /  11.3km/h 9.0mph /  14.5km/h 65% 0.00in /  0mm
16:35 24.9 °F /  -3.9 °C 14.8 °F /  -9.6 °C 30.52in /  1033.4hPa SW 3.0mph /  4.8km/h 7.0mph /  11.3km/h 65% 0.00in /  0mm
16:40 24.8 °F /  -4 °C 14.7 °F /  -9.6 °C 30.52in /  1033.4hPa West 3.0mph /  4.8km/h 8.0mph /  12.9km/h 65% 0.00in /  0mm
16:45 24.9 °F /  -3.9 °C 15.1 °F /  -9.4 °C 30.52in /  1033.4hPa SW 4.0mph /  6.4km/h 7.0mph /  11.3km/h 66% 0.00in /  0mm
16:50 24.9 °F /  -3.9 °C 14.8 °F /  -9.6 °C 30.52in /  1033.4hPa SW 4.0mph /  6.4km/h 7.0mph /  11.3km/h 65% 0.00in /  0mm
16:55 25.1 °F /  -3.8 °C 15.0 °F /  -9.4 °C 30.52in /  1033.4hPa SW 4.0mph /  6.4km/h 7.0mph /  11.3km/h 65% 0.00in /  0mm
17:00 25.2 °F /  -3.8 °C 15.1 °F /  -9.4 °C 30.52in /  1033.4hPa SW 3.0mph /  4.8km/h 7.0mph /  11.3km/h 65% 0.00in /  0mm
17:05 25.3 °F /  -3.7 °C 15.5 °F /  -9.2 °C 30.52in /  1033.4hPa SW 3.0mph /  4.8km/h 7.0mph /  11.3km/h 66% 0.00in /  0mm
17:10 25.4 °F /  -3.7 °C 15.6 °F /  -9.1 °C 30.52in /  1033.4hPa SW 3.0mph /  4.8km/h 8.0mph /  12.9km/h 66% 0.00in /  0mm
17:15 25.3 °F /  -3.7 °C 15.5 °F /  -9.2 °C 30.52in /  1033.4hPa WSW 4.0mph /  6.4km/h 9.0mph /  14.5km/h 66% 0.00in /  0mm
17:20 25.3 °F /  -3.7 °C 15.9 °F /  -8.9 °C 30.52in /  1033.4hPa SW 7.0mph /  11.3km/h 8.0mph /  12.9km/h 67% 0.00in /  0mm
17:25 25.3 °F /  -3.7 °C 15.9 °F /  -8.9 °C 30.52in /  1033.4hPa WSW 5.0mph /  8km/h 10.0mph /  16.1km/h 67% 0.00in /  0mm
17:30 25.3 °F /  -3.7 °C 16.2 °F /  -8.8 °C 30.52in /  1033.4hPa WSW 11.0mph /  17.7km/h 11.0mph /  17.7km/h 68% 0.00in /  0mm
17:35 25.3 °F /  -3.7 °C 15.9 °F /  -8.9 °C 30.53in /  1033.7hPa SSW 3.0mph /  4.8km/h 11.0mph /  17.7km/h 67% 0.00in /  0mm
17:40 25.2 °F /  -3.8 °C 15.4 °F /  -9.2 °C 30.53in /  1033.7hPa SW 3.0mph /  4.8km/h 8.0mph /  12.9km/h 66% 0.00in /  0mm
17:45 25.3 °F /  -3.7 °C 15.5 °F /  -9.2 °C 30.53in /  1033.7hPa SW 2.0mph /  3.2km/h 6.0mph /  9.7km/h 66% 0.00in /  0mm
17:50 25.4 °F /  -3.7 °C 15.6 °F /  -9.1 °C 30.53in /  1033.7hPa SSW 2.0mph /  3.2km/h 8.0mph /  12.9km/h 66% 0.00in /  0mm
17:55 25.4 °F /  -3.7 °C 15.6 °F /  -9.1 °C 30.53in /  1033.7hPa WSW 4.0mph /  6.4km/h 9.0mph /  14.5km/h 66% 0.00in /  0mm
18:00 25.4 °F /  -3.7 °C 15.6 °F /  -9.1 °C 30.53in /  1033.7hPa WSW 4.0mph /  6.4km/h 9.0mph /  14.5km/h 66% 0.00in /  0mm
18:05 25.5 °F /  -3.6 °C 15.4 °F /  -9.2 °C 30.53in /  1033.7hPa WSW 4.0mph /  6.4km/h 9.0mph /  14.5km/h 65% 0.00in /  0mm
18:10 25.6 °F /  -3.6 °C 15.1 °F /  -9.4 °C 30.53in /  1033.7hPa WSW 3.0mph /  4.8km/h 8.0mph /  12.9km/h 64% 0.00in /  0mm
18:15 25.6 °F /  -3.6 °C 15.1 °F /  -9.4 °C 30.54in /  1034.1hPa WSW 4.0mph /  6.4km/h 9.0mph /  14.5km/h 64% 0.00in /  0mm
18:20 25.7 °F /  -3.5 °C 15.2 °F /  -9.3 °C 30.54in /  1034.1hPa WSW 4.0mph /  6.4km/h 9.0mph /  14.5km/h 64% 0.00in /  0mm
18:25 25.7 °F /  -3.5 °C 15.2 °F /  -9.3 °C 30.54in /  1034.1hPa WSW 4.0mph /  6.4km/h 9.0mph /  14.5km/h 64% 0.00in /  0mm
18:30 25.8 °F /  -3.4 °C 15.3 °F /  -9.3 °C 30.54in /  1034.1hPa SSW 5.0mph /  8km/h 8.0mph /  12.9km/h 64% 0.00in /  0mm
18:35 25.8 °F /  -3.4 °C 15.3 °F /  -9.3 °C 30.54in /  1034.1hPa West 3.0mph /  4.8km/h 7.0mph /  11.3km/h 64% 0.00in /  0mm
18:40 25.9 °F /  -3.4 °C 15.4 °F /  -9.2 °C 30.54in /  1034.1hPa SW 4.0mph /  6.4km/h 7.0mph /  11.3km/h 64% 0.00in /  0mm
18:45 25.9 °F /  -3.4 °C 15.7 °F /  -9.1 °C 30.54in /  1034.1hPa SW 2.0mph /  3.2km/h 5.0mph /  8km/h 65% 0.00in /  0mm
18:50 25.9 °F /  -3.4 °C 16.1 °F /  -8.8 °C 30.55in /  1034.4hPa SW 3.0mph /  4.8km/h 4.0mph /  6.4km/h 66% 0.00in /  0mm
18:55 26.0 °F /  -3.3 °C 15.8 °F /  -9 °C 30.55in /  1034.4hPa WSW 6.0mph /  9.7km/h 7.0mph /  11.3km/h 65% 0.00in /  0mm
19:00 26.0 °F /  -3.3 °C 15.8 °F /  -9 °C 30.54in /  1034.1hPa WSW 2.0mph /  3.2km/h 6.0mph /  9.7km/h 65% 0.00in /  0mm
19:05 26.0 °F /  -3.3 °C 15.8 °F /  -9 °C 30.55in /  1034.4hPa WSW 3.0mph /  4.8km/h 7.0mph /  11.3km/h 65% 0.00in /  0mm
19:10 26.0 °F /  -3.3 °C 15.8 °F /  -9 °C 30.55in /  1034.4hPa WSW 3.0mph /  4.8km/h 6.0mph /  9.7km/h 65% 0.00in /  0mm
19:15 26.0 °F /  -3.3 °C 15.8 °F /  -9 °C 30.55in /  1034.4hPa WSW 3.0mph /  4.8km/h 6.0mph /  9.7km/h 65% 0.00in /  0mm
19:20 26.1 °F /  -3.3 °C 16.3 °F /  -8.7 °C 30.55in /  1034.4hPa WSW 3.0mph /  4.8km/h 6.0mph /  9.7km/h 66% 0.00in /  0mm
19:25 26.1 °F /  -3.3 °C 16.3 °F /  -8.7 °C 30.55in /  1034.4hPa WSW 2.0mph /  3.2km/h 5.0mph /  8km/h 66% 0.00in /  0mm
19:30 26.1 °F /  -3.3 °C 16.3 °F /  -8.7 °C 30.55in /  1034.4hPa WSW 2.0mph /  3.2km/h 5.0mph /  8km/h 66% 0.00in /  0mm
19:35 26.2 °F /  -3.2 °C 16.7 °F /  -8.5 °C 30.56in /  1034.8hPa WSW 2.0mph /  3.2km/h 5.0mph /  8km/h 67% 0.00in /  0mm
19:40 26.2 °F /  -3.2 °C 16.7 °F /  -8.5 °C 30.56in /  1034.8hPa WSW 2.0mph /  3.2km/h 5.0mph /  8km/h 67% 0.00in /  0mm
19:45 26.2 °F /  -3.2 °C 17.1 °F /  -8.3 °C 30.56in /  1034.8hPa WSW 1.0mph /  1.6km/h 5.0mph /  8km/h 68% 0.00in /  0mm
19:50 26.2 °F /  -3.2 °C 17.1 °F /  -8.3 °C 30.56in /  1034.8hPa Calm   3.0mph /  4.8km/h 68% 0.00in /  0mm
19:55 26.2 °F /  -3.2 °C 17.4 °F /  -8.1 °C 30.55in /  1034.4hPa SW 1.0mph /  1.6km/h 4.0mph /  6.4km/h 69% 0.00in /  0mm
20:00 26.2 °F /  -3.2 °C 17.4 °F /  -8.1 °C 30.55in /  1034.4hPa SW 1.0mph /  1.6km/h 4.0mph /  6.4km/h 69% 0.00in /  0mm
20:05 26.1 °F /  -3.3 °C 17.3 °F /  -8.2 °C 30.55in /  1034.4hPa SW 3.0mph /  4.8km/h 4.0mph /  6.4km/h 69% 0.00in /  0mm
20:10 26.1 °F /  -3.3 °C 17.6 °F /  -8 °C 30.55in /  1034.4hPa SW 2.0mph /  3.2km/h 6.0mph /  9.7km/h 70% 0.00in /  0mm
20:15 26.1 °F /  -3.3 °C 17.6 °F /  -8 °C 30.55in /  1034.4hPa SW 2.0mph /  3.2km/h 6.0mph /  9.7km/h 70% 0.00in /  0mm
20:20 26.1 °F /  -3.3 °C 18.0 °F /  -7.8 °C 30.55in /  1034.4hPa SSW 1.0mph /  1.6km/h 4.0mph /  6.4km/h 71% 0.00in /  0mm
20:25 26.1 °F /  -3.3 °C 18.0 °F /  -7.8 °C 30.55in /  1034.4hPa SSW 1.0mph /  1.6km/h 4.0mph /  6.4km/h 71% 0.00in /  0mm
20:30 26.2 °F /  -3.2 °C 18.1 °F /  -7.7 °C 30.55in /  1034.4hPa SSW 1.0mph /  1.6km/h 4.0mph /  6.4km/h 71% 0.00in /  0mm
20:35 26.2 °F /  -3.2 °C 18.1 °F /  -7.7 °C 30.55in /  1034.4hPa SSW 1.0mph /  1.6km/h 4.0mph /  6.4km/h 71% 0.00in /  0mm
20:40 26.3 °F /  -3.2 °C 18.5 °F /  -7.5 °C 30.56in /  1034.8hPa SSW 1.0mph /  1.6km/h 4.0mph /  6.4km/h 72% 0.00in /  0mm
20:45 26.2 °F /  -3.2 °C 18.1 °F /  -7.7 °C 30.56in /  1034.8hPa Calm   4.0mph /  6.4km/h 71% 0.00in /  0mm
20:50 26.3 °F /  -3.2 °C 18.2 °F /  -7.7 °C 30.56in /  1034.8hPa Calm   2.0mph /  3.2km/h 71% 0.00in /  0mm
20:55 26.3 °F /  -3.2 °C 18.5 °F /  -7.5 °C 30.56in /  1034.8hPa Calm     72% 0.00in /  0mm
21:00 26.3 °F /  -3.2 °C 18.5 °F /  -7.5 °C 30.56in /  1034.8hPa Calm   1.0mph /  1.6km/h 72% 0.00in /  0mm
21:05 26.3 °F /  -3.2 °C 18.5 °F /  -7.5 °C 30.56in /  1034.8hPa Calm     72% 0.00in /  0mm
21:10 26.4 °F /  -3.1 °C 18.6 °F /  -7.4 °C 30.56in /  1034.8hPa SSW 2.0mph /  3.2km/h 2.0mph /  3.2km/h 72% 0.00in /  0mm
21:15 26.4 °F /  -3.1 °C 18.6 °F /  -7.4 °C 30.56in /  1034.8hPa Calm   2.0mph /  3.2km/h 72% 0.00in /  0mm
21:20 26.5 °F /  -3.1 °C 18.7 °F /  -7.4 °C 30.56in /  1034.8hPa SSW 1.0mph /  1.6km/h 3.0mph /  4.8km/h 72% 0.00in /  0mm
21:25 26.5 °F /  -3.1 °C 18.7 °F /  -7.4 °C 30.56in /  1034.8hPa SSW 1.0mph /  1.6km/h 3.0mph /  4.8km/h 72% 0.00in /  0mm
21:30 26.4 °F /  -3.1 °C 18.6 °F /  -7.4 °C 30.56in /  1034.8hPa SSW 1.0mph /  1.6km/h 3.0mph /  4.8km/h 72% 0.00in /  0mm
21:35 26.5 °F /  -3.1 °C 18.7 °F /  -7.4 °C 30.56in /  1034.8hPa Calm   2.0mph /  3.2km/h 72% 0.00in /  0mm
21:40 26.6 °F /  -3 °C 18.8 °F /  -7.3 °C 30.57in /  1035.1hPa SSW 2.0mph /  3.2km/h 3.0mph /  4.8km/h 72% 0.00in /  0mm
21:45 26.6 °F /  -3 °C 18.8 °F /  -7.3 °C 30.56in /  1034.8hPa SSW 1.0mph /  1.6km/h 2.0mph /  3.2km/h 72% 0.00in /  0mm
21:50 26.6 °F /  -3 °C 18.8 °F /  -7.3 °C 30.57in /  1035.1hPa SSW 1.0mph /  1.6km/h 3.0mph /  4.8km/h 72% 0.00in /  0mm
21:55 26.6 °F /  -3 °C 18.8 °F /  -7.3 °C 30.56in /  1034.8hPa SSW 1.0mph /  1.6km/h 4.0mph /  6.4km/h 72% 0.00in /  0mm
22:00 26.6 °F /  -3 °C 18.8 °F /  -7.3 °C 30.56in /  1034.8hPa SSW 1.0mph /  1.6km/h 4.0mph /  6.4km/h 72% 0.00in /  0mm
22:05 26.7 °F /  -2.9 °C 18.9 °F /  -7.3 °C 30.56in /  1034.8hPa SSW 2.0mph /  3.2km/h 3.0mph /  4.8km/h 72% 0.00in /  0mm
22:10 26.8 °F /  -2.9 °C 18.7 °F /  -7.4 °C 30.56in /  1034.8hPa Calm   3.0mph /  4.8km/h 71% 0.00in /  0mm
22:15 26.9 °F /  -2.8 °C 18.7 °F /  -7.4 °C 30.56in /  1034.8hPa SSW 2.0mph /  3.2km/h 4.0mph /  6.4km/h 71% 0.00in /  0mm
22:20 26.9 °F /  -2.8 °C 18.7 °F /  -7.4 °C 30.57in /  1035.1hPa SSW 1.0mph /  1.6km/h 4.0mph /  6.4km/h 71% 0.00in /  0mm
22:25 26.9 °F /  -2.8 °C 18.7 °F /  -7.4 °C 30.56in /  1034.8hPa SSW 1.0mph /  1.6km/h 4.0mph /  6.4km/h 71% 0.00in /  0mm
22:30 27.0 °F /  -2.8 °C 18.8 °F /  -7.3 °C 30.56in /  1034.8hPa SSW 1.0mph /  1.6km/h 4.0mph /  6.4km/h 71% 0.00in /  0mm
22:35 27.1 °F /  -2.7 °C 18.9 °F /  -7.3 °C 30.56in /  1034.8hPa SSW 1.0mph /  1.6km/h 3.0mph /  4.8km/h 71% 0.00in /  0mm
22:40 27.1 °F /  -2.7 °C 18.9 °F /  -7.3 °C 30.56in /  1034.8hPa SSW 1.0mph /  1.6km/h 3.0mph /  4.8km/h 71% 0.00in /  0mm
22:45 27.2 °F /  -2.7 °C 19.0 °F /  -7.2 °C 30.56in /  1034.8hPa Calm   2.0mph /  3.2km/h 71% 0.00in /  0mm
22:50 27.2 °F /  -2.7 °C 19.0 °F /  -7.2 °C 30.56in /  1034.8hPa SSW 2.0mph /  3.2km/h 3.0mph /  4.8km/h 71% 0.00in /  0mm
22:55 27.2 °F /  -2.7 °C 19.0 °F /  -7.2 °C 30.56in /  1034.8hPa SSW 1.0mph /  1.6km/h 3.0mph /  4.8km/h 71% 0.00in /  0mm
23:00 27.2 °F /  -2.7 °C 19.0 °F /  -7.2 °C 30.57in /  1035.1hPa SSW 1.0mph /  1.6km/h 3.0mph /  4.8km/h 71% 0.00in /  0mm
23:05 27.2 °F /  -2.7 °C 19.0 °F /  -7.2 °C 30.57in /  1035.1hPa Calm   3.0mph /  4.8km/h 71% 0.00in /  0mm
23:10 27.2 °F /  -2.7 °C 19.4 °F /  -7 °C 30.57in /  1035.1hPa Calm   2.0mph /  3.2km/h 72% 0.00in /  0mm
23:15 27.2 °F /  -2.7 °C 19.4 °F /  -7 °C 30.57in /  1035.1hPa Calm     72% 0.00in /  0mm
23:20 27.2 °F /  -2.7 °C 19.4 °F /  -7 °C 30.57in /  1035.1hPa SSW 2.0mph /  3.2km/h 3.0mph /  4.8km/h 72% 0.00in /  0mm
23:25 27.2 °F /  -2.7 °C 19.4 °F /  -7 °C 30.57in /  1035.1hPa Calm   3.0mph /  4.8km/h 72% 0.00in /  0mm
23:30 27.3 °F /  -2.6 °C 19.5 °F /  -6.9 °C 30.57in /  1035.1hPa Calm   2.0mph /  3.2km/h 72% 0.00in /  0mm
23:35 27.4 °F /  -2.6 °C 19.9 °F /  -6.7 °C 30.57in /  1035.1hPa Calm   4.0mph /  6.4km/h 73% 0.00in /  0mm
23:40 27.4 °F /  -2.6 °C 19.9 °F /  -6.7 °C 30.57in /  1035.1hPa Calm   4.0mph /  6.4km/h 73% 0.00in /  0mm
23:45 27.4 °F /  -2.6 °C 19.9 °F /  -6.7 °C 30.57in /  1035.1hPa Calm     73% 0.00in /  0mm
23:50 27.4 °F /  -2.6 °C 19.9 °F /  -6.7 °C 30.57in /  1035.1hPa Calm     73% 0.00in /  0mm
23:55 27.5 °F /  -2.5 °C 20.0 °F /  -6.7 °C 30.57in /  1035.1hPa Calm     73% 0.00in /  0mm
Buffalo, New York, USA
Compliments of Weather Underground - 2.5 mb